createdAt,value
2022-11-16T00:00:29.163Z,20.5
2022-11-16T00:05:29.473Z,20.7
2022-11-16T00:10:29.341Z,20.7
2022-11-16T00:15:29.108Z,20.6
2022-11-16T00:20:32.000Z,20.9
2022-11-16T00:25:34.226Z,20.5
2022-11-16T00:30:38.200Z,20.9
2022-11-16T00:35:40.285Z,20.9
2022-11-16T00:40:42.191Z,20.5
2022-11-16T00:45:44.397Z,20.9
2022-11-16T00:50:43.952Z,20.6
2022-11-16T00:55:43.847Z,20.6
2022-11-16T01:00:46.769Z,20.8
2022-11-16T01:05:46.207Z,20.3
2022-11-16T01:10:46.343Z,20.3
2022-11-16T01:15:46.270Z,20.6
2022-11-16T01:20:46.123Z,20.6
2022-11-16T01:25:45.817Z,20.6
2022-11-16T01:30:45.873Z,20.6
2022-11-16T01:35:45.950Z,20.6
2022-11-16T01:40:45.882Z,20.3
2022-11-16T01:45:45.854Z,20.5
2022-11-16T01:50:50.052Z,20.8
2022-11-16T01:55:49.156Z,20.6
2022-11-16T02:00:51.883Z,20.8
2022-11-16T02:05:51.444Z,20.6
2022-11-16T02:10:55.208Z,20.4
2022-11-16T02:15:57.287Z,20.7
2022-11-16T02:20:59.528Z,20.4
2022-11-16T02:26:01.801Z,20.7
2022-11-16T02:31:01.217Z,20.5
2022-11-16T02:36:00.970Z,20.5
2022-11-16T02:41:00.636Z,20.5
2022-11-16T02:46:00.431Z,20.1
2022-11-16T02:51:03.204Z,20.3
2022-11-16T02:56:02.834Z,20.5
2022-11-16T03:01:05.512Z,20.7
2022-11-16T03:06:04.987Z,20.1
2022-11-16T03:11:04.978Z,20.5
2022-11-16T03:16:05.011Z,20.5
2022-11-16T03:21:04.714Z,20.5
2022-11-16T03:26:04.667Z,20.5
2022-11-16T03:31:04.704Z,19.9
2022-11-16T03:36:04.451Z,19.8
2022-11-16T03:41:04.552Z,20.4
2022-11-16T03:46:04.340Z,20.4
2022-11-16T03:51:07.272Z,20
2022-11-16T03:56:06.671Z,20
2022-11-16T04:01:06.707Z,20.1
2022-11-16T04:06:06.650Z,20.4
2022-11-16T04:11:06.688Z,20.1
2022-11-16T04:16:06.614Z,20.4
2022-11-16T04:21:06.762Z,20.4
2022-11-16T04:26:06.456Z,20.4
2022-11-16T04:31:06.348Z,20.4
2022-11-16T04:36:09.059Z,20.6
2022-11-16T04:41:11.242Z,20.5
2022-11-16T04:46:13.441Z,20.5
2022-11-16T04:51:13.020Z,20.4
2022-11-16T04:56:15.911Z,20.5
2022-11-16T05:01:15.220Z,20.4
2022-11-16T05:06:14.775Z,20
2022-11-16T05:11:17.441Z,20.2
2022-11-16T05:16:16.998Z,20.4
2022-11-16T05:21:16.328Z,20.3
2022-11-16T05:26:18.994Z,20.2
2022-11-16T05:31:21.127Z,20.5
2022-11-16T05:36:20.659Z,20.3
2022-11-16T05:41:20.652Z,20.3
2022-11-16T05:46:23.453Z,20.5
2022-11-16T05:51:22.902Z,20.2
2022-11-16T05:56:25.767Z,20.5
2022-11-16T06:01:25.417Z,20.3
2022-11-16T06:06:25.438Z,20.4
2022-11-16T06:11:31.442Z,20.6
2022-11-16T06:16:28.019Z,20.5
2022-11-16T06:21:27.674Z,20.5
2022-11-16T06:26:27.690Z,19.8
2022-11-16T06:31:27.651Z,20.5
2022-11-16T06:36:30.799Z,20.6
2022-11-16T06:41:30.072Z,20.6
2022-11-16T06:46:30.175Z,20.2
2022-11-16T06:51:30.341Z,20.5
2022-11-16T06:56:30.739Z,19.9
2022-11-16T07:01:30.322Z,20.6
2022-11-16T07:06:30.336Z,20.6
2022-11-16T07:11:30.586Z,20.6
2022-11-16T07:16:30.597Z,20.3
2022-11-16T07:21:33.436Z,20.9
2022-11-16T07:26:32.961Z,20.4
2022-11-16T07:31:32.864Z,20.4
2022-11-16T07:36:35.510Z,20.8
2022-11-16T07:41:35.262Z,21
2022-11-16T07:46:46.372Z,20.5
2022-11-16T07:51:35.342Z,20.8
2022-11-16T07:56:35.519Z,20.6
2022-11-16T08:01:35.613Z,20.9
2022-11-16T08:06:35.832Z,20.9
2022-11-16T08:11:35.676Z,20.9
2022-11-16T08:16:38.441Z,21
2022-11-16T08:21:38.173Z,20.7
2022-11-16T08:26:37.661Z,20.6
2022-11-16T08:31:37.770Z,20.8
2022-11-16T08:36:37.560Z,20.9
2022-11-16T08:41:37.678Z,20.9
2022-11-16T08:46:37.382Z,20.5
2022-11-16T08:56:44.815Z,20.8
2022-11-16T09:01:44.328Z,20.8
2022-11-16T09:06:44.227Z,20.5
2022-11-16T09:16:53.428Z,20.4
2022-11-16T09:21:53.310Z,20.9
2022-11-16T09:26:53.246Z,20.5
2022-11-16T09:31:53.348Z,20.8
2022-11-16T09:36:53.534Z,21
2022-11-16T09:41:53.469Z,20.8
2022-11-16T09:46:56.292Z,21.1
2022-11-16T09:57:01.402Z,21.4
2022-11-16T10:02:00.873Z,21.2
2022-11-16T10:07:00.610Z,21.3
2022-11-16T10:12:00.545Z,21.2
2022-11-16T10:17:00.587Z,21.4
2022-11-16T10:22:00.867Z,21.1
2022-11-16T10:27:00.886Z,21.5
2022-11-16T10:32:00.695Z,21.5
2022-11-16T10:37:03.631Z,21.6
2022-11-16T10:42:07.183Z,21.4
2022-11-16T10:47:03.134Z,21.3
2022-11-16T10:52:06.118Z,21.6
2022-11-16T10:57:05.722Z,21.2
2022-11-16T11:02:05.538Z,21.2
2022-11-16T11:07:05.581Z,21.4
2022-11-16T11:12:05.123Z,21.4
2022-11-16T11:17:04.781Z,21.3
2022-11-16T11:22:05.516Z,21.2
2022-11-16T11:27:05.240Z,21.3
2022-11-16T11:32:07.749Z,21.6
2022-11-16T11:37:10.820Z,21.5
2022-11-16T11:42:10.222Z,21.5
2022-11-16T11:52:10.228Z,21.3
2022-11-16T11:57:10.370Z,21.6
2022-11-16T12:02:13.152Z,20.9
2022-11-16T12:07:15.315Z,21.5
2022-11-16T12:12:17.212Z,21.3
2022-11-16T12:17:16.727Z,21.7
2022-11-16T12:22:16.638Z,21.6
2022-11-16T12:27:16.926Z,21.3
2022-11-16T12:32:16.719Z,21.6
2022-11-16T12:37:19.340Z,21.5
2022-11-16T12:42:21.514Z,21.4
2022-11-16T12:47:23.694Z,21.5
2022-11-16T12:52:25.778Z,21.6
2022-11-16T12:57:27.974Z,22
2022-11-16T13:02:29.972Z,21.8
2022-11-16T13:07:30.524Z,22
2022-11-16T13:12:33.215Z,21.8
2022-11-16T13:17:35.262Z,22.1
2022-11-16T13:22:34.846Z,22
2022-11-16T13:27:34.865Z,21.7
2022-11-16T13:32:34.852Z,21.7
2022-11-16T13:37:34.803Z,22
2022-11-16T13:42:34.809Z,22
2022-11-16T13:47:34.928Z,22
2022-11-16T13:52:55.471Z,21.9
2022-11-16T13:57:34.183Z,22
2022-11-16T14:02:36.884Z,22.1
2022-11-16T14:07:39.356Z,21.8
2022-11-16T14:12:38.659Z,22
2022-11-16T14:17:38.549Z,22
2022-11-16T14:22:38.483Z,21.9
2022-11-16T14:27:38.210Z,21.6
2022-11-16T14:32:42.486Z,21.6
2022-11-16T14:37:40.662Z,22.1
2022-11-16T14:43:01.789Z,22.1
2022-11-16T14:47:45.141Z,22
2022-11-16T14:52:47.302Z,22.1
2022-11-16T14:57:46.809Z,21.6
2022-11-16T15:02:51.111Z,21.5
2022-11-16T15:07:46.402Z,21.9
2022-11-16T15:12:48.778Z,22.1
2022-11-16T15:17:51.114Z,22.1
2022-11-16T15:22:53.234Z,22.1
2022-11-16T15:27:54.959Z,21.8
2022-11-16T15:32:57.162Z,22.1
2022-11-16T15:37:56.323Z,21.3
2022-11-16T15:42:56.258Z,21.5
2022-11-16T15:47:58.964Z,21.9
2022-11-16T15:53:01.086Z,22.1
2022-11-16T15:58:03.119Z,22.1
2022-11-16T16:03:02.311Z,21.9
2022-11-16T16:08:02.398Z,21.6
2022-11-16T16:13:02.478Z,21.9
2022-11-16T16:18:06.625Z,22
2022-11-16T16:23:08.765Z,21.5
2022-11-16T16:28:08.317Z,21.9
2022-11-16T16:33:10.636Z,21.8
2022-11-16T16:38:12.429Z,22.1
2022-11-16T16:43:11.835Z,21.9
2022-11-16T16:48:13.536Z,21.5
2022-11-16T16:53:15.840Z,21.8
2022-11-16T16:58:15.222Z,21.8
2022-11-16T17:03:16.138Z,21.5
2022-11-16T17:08:18.308Z,21.6
2022-11-16T17:13:17.574Z,21.5
2022-11-16T17:18:17.335Z,20.1
2022-11-16T17:23:19.705Z,21.5
2022-11-16T17:28:21.925Z,21.7
2022-11-16T17:33:24.207Z,21.5
2022-11-16T17:38:23.381Z,21.4
2022-11-16T17:43:23.354Z,21.1
2022-11-16T17:48:23.076Z,21.4
2022-11-16T17:53:24.512Z,21.4
2022-11-16T17:58:23.067Z,21.4
2022-11-16T18:03:22.959Z,21.4
2022-11-16T18:08:23.010Z,21.3
2022-11-16T18:13:25.800Z,21.4
2022-11-16T18:18:27.889Z,21.4
2022-11-16T18:23:27.165Z,21.3
2022-11-16T18:28:27.133Z,21.3
2022-11-16T18:33:30.326Z,21.3
2022-11-16T18:38:27.228Z,21.1
2022-11-16T18:43:29.794Z,21.4
2022-11-16T18:48:29.396Z,20.9
2022-11-16T18:53:30.255Z,21.4
2022-11-16T19:03:30.024Z,21.2
2022-11-16T19:08:29.966Z,21.2
2022-11-16T19:13:29.909Z,21.2
2022-11-16T19:18:29.844Z,21.1
2022-11-16T19:23:29.705Z,21.2
2022-11-16T19:28:29.747Z,21.2
2022-11-16T19:33:29.887Z,21.2
2022-11-16T19:38:32.327Z,21.3
2022-11-16T19:43:31.474Z,21.2
2022-11-16T19:48:31.242Z,21.2
2022-11-16T19:53:31.593Z,21.1
2022-11-16T19:58:31.344Z,21.1
2022-11-16T20:03:31.561Z,20.5
2022-11-16T20:08:31.275Z,20.8
2022-11-16T20:13:31.922Z,20.9
2022-11-16T20:18:31.565Z,21
2022-11-16T20:23:31.504Z,21.1
2022-11-16T20:28:31.474Z,20.7
2022-11-16T20:33:31.758Z,20.7
2022-11-16T20:38:34.349Z,20.9
2022-11-16T20:43:34.238Z,21.1
2022-11-16T20:48:36.822Z,20.6
2022-11-16T20:53:38.958Z,20.9
2022-11-16T20:58:38.531Z,20.7
2022-11-16T21:03:38.513Z,21.1
2022-11-16T21:08:41.351Z,21.2
2022-11-16T21:13:43.389Z,20.9
2022-11-16T21:18:45.468Z,21.2
2022-11-16T21:23:44.576Z,21
2022-11-16T21:28:47.120Z,21.2
2022-11-16T21:33:46.567Z,20.7
2022-11-16T21:38:46.725Z,21
2022-11-16T21:43:46.408Z,20.6
2022-11-16T21:48:46.230Z,20.7
2022-11-16T21:53:46.370Z,21
2022-11-16T21:58:49.215Z,21.2
2022-11-16T22:03:48.913Z,21
2022-11-16T22:08:47.342Z,21.1
2022-11-16T22:13:47.506Z,20.7
2022-11-16T22:18:47.494Z,21
2022-11-16T22:23:47.368Z,20.7
2022-11-16T22:28:47.058Z,21
2022-11-16T22:33:47.218Z,20.6
2022-11-16T22:38:47.336Z,20.9
2022-11-16T22:43:50.035Z,20.8
2022-11-16T22:48:49.441Z,21
2022-11-16T22:53:52.190Z,21.1
2022-11-16T22:58:51.497Z,21
2022-11-16T23:03:51.631Z,21
2022-11-16T23:08:51.756Z,20.6
2022-11-16T23:13:54.448Z,21.1
2022-11-16T23:18:54.069Z,21
2022-11-16T23:23:53.967Z,21
2022-11-16T23:28:53.750Z,21
2022-11-16T23:33:53.842Z,21
2022-11-16T23:38:53.719Z,21
2022-11-16T23:43:53.761Z,20.6
2022-11-16T23:48:53.753Z,21
2022-11-16T23:53:53.379Z,21
2022-11-16T23:58:53.129Z,21
